aviador You're here:

ZYTL Decoded Metar

DALIAN in CHINA
Report Time2017-03-23 23:30:00
UTC Time2017-03-24 00:06:09
Flight Rules vfr VFR
WindVRB at 2 kt
Visibility9999 m
Phenomena:N/A
Clouds:N/A
Expected CloudBase > 5,600 ft AGL from Temp-Dew spread
CeilingNone
Temp06°C (ISA -8)
Dew Point-8°C (36% RH)
AAT2.4°C
QNH1025 hPa
Density Alt-1,047 ft
Elevation318 ft
Report Wrong Elevation
Raw Report
METAR ZYTL 232330Z VRB01MPS CAVOK 06/M08 Q1025 NOSIG=

Extra information for ZYTL:More info

Metar Taf Metar & Taf Last 4 Metars F.Rules Stats Wind Profile Meteogram Temp Stats Airport Information Weather charts Add Link Nearby VenuesMetar ALERT Operation Metar Decoded Social comments